< < Back
Terminal Aerodrome Forecast


Current Version              Previous Versions:   1  2  3  4  5  6  7  8  9  

Terminal Aerodrome Forecast

285
FTUS42 KFFC 281120
TAFATL
TAF
KATL 281120Z 2812/2918 07008KT P6SM FEW070
     FM281400 09008KT P6SM SCT045
     FM281900 07010KT P6SM SCT060
     FM290100 08005KT P6SM SCT250
     FM291400 08009KT P6SM SCT045=

Latest METAR

291
SAUS70 KWBC 282000 RRJ
MTRATL
METAR KATL 281952Z 09010KT 10SM FEW045 31/21 A3010 RMK AO2 SLP180
T03110206


USA.gov is the U.S. government's official web portal to all federal, state and local government web resources and services.